Westrac — WTH4325 — position and weather

sailwx.info

Track history (hours):
 
Tides and Currents Weather Stations Pressure Air Temp Water Temp Dewpoint Dewpoint Depression Visibility Wind Speed Wind Dir Waves Ship Positions

Westrac

Owner: WESTERN TOWBOAT CO, SEATTLE, WA. More information available from US FCC via Universal Licensing System and Coast Guard Vessel Documentation Center.

Last reported at 2018-Jan-18 01:55 UTC. Time now 2018-Jan-18 17:58 UTC.
Position N 47°34' W 122°21'.

Length 23 m; draft 5 m.

Type: Tug. MMSI: 366993010.

Date/timePositionNaut miles runAvg speedWind from/ knotsBaromVisibWave heightAir tempDewpointWater temp
2018-Jan-18 01:55N 47°34' W 122°21'1 1.9
2018-Jan-18 01:22N 47°33' W 122°20'0 0.9
2018-Jan-18 01:00N 47°33' W 122°20'5 5.1
2018-Jan-18 00:01N 47°38' W 122°23'0 0.0
2018-Jan-17 23:58N 47°38' W 122°23'  
2018-Jan-11 02:02N 47°34' W 122°21'0 0.3
2018-Jan-11 02:00N 47°34' W 122°21'1 1.9
2018-Jan-11 01:30N 47°33' W 122°21'0 0.1
2018-Jan-11 01:01N 47°33' W 122°21'0 0.0
2018-Jan-11 00:30N 47°33' W 122°21'1 1.9
2018-Jan-10 23:59N 47°34' W 122°21'0 0.0
2018-Jan-10 23:30N 47°34' W 122°21'0 0.0
2018-Jan-10 22:59N 47°34' W 122°21'0 0.0
2018-Jan-10 22:26N 47°34' W 122°21'0 0.0
2018-Jan-10 22:00N 47°34' W 122°21'0 0.0
2018-Jan-10 21:29N 47°34' W 122°21'0 0.0
2018-Jan-10 21:00N 47°34' W 122°21'0 0.0
2018-Jan-10 20:29N 47°34' W 122°21'0 0.0
2018-Jan-10 20:00N 47°34' W 122°21'0 0.0
2018-Jan-10 19:29N 47°34' W 122°21'0 0.0
2018-Jan-10 19:00N 47°34' W 122°21'1 1.6
2018-Jan-10 18:30N 47°33' W 122°21'0 0.3
2018-Jan-10 18:00N 47°33' W 122°21'2 5.0
2018-Jan-10 17:31N 47°35' W 122°22'2 3.8
2018-Jan-10 17:00N 47°34' W 122°21'0 0.9
2018-Jan-10 16:31N 47°34' W 122°21'1 2.3
2018-Jan-10 16:01N 47°35' W 122°21'2 2.9
2018-Jan-10 15:28N 47°34' W 122°21'1 1.1
2018-Jan-10 15:00N 47°33' W 122°21'1 1.8
2018-Jan-10 14:30N 47°34' W 122°21'0 0.0
2018-Jan-10 14:01N 47°34' W 122°21'0 0.0
2018-Jan-09 20:08N 47°34' W 122°21'0 3.4
2018-Jan-09 20:01N 47°34' W 122°21'0 0.9
2018-Jan-09 19:30N 47°35' W 122°22'3 5.7
2018-Jan-09 19:00N 47°32' W 122°20'1 1.0
2018-Jan-09 18:30N 47°33' W 122°20'0 0.1
2018-Jan-09 18:00N 47°33' W 122°20'0 0.6
2018-Jan-09 17:31N 47°32' W 122°20'0 0.6
2018-Jan-09 17:00N 47°33' W 122°20'2 4.9
2018-Jan-09 16:30N 47°35' W 122°21'1 1.4
2018-Jan-09 16:01N 47°35' W 122°22'2 3.5
2018-Jan-09 15:30N 47°33' W 122°20'0 0.8
2018-Jan-09 15:00N 47°33' W 122°20'0 0.8
2018-Jan-09 14:31N 47°33' W 122°20'1 1.3
2018-Jan-09 14:01N 47°34' W 122°21'0 0.0
2018-Jan-08 21:31N 47°34' W 122°21'0 0.0
2018-Jan-08 21:31N 47°34' W 122°21'0 0.7
2018-Jan-08 21:00N 47°34' W 122°21'2 3.7
2018-Jan-08 20:30N 47°35' W 122°22'0 0.5
2018-Jan-08 20:01N 47°35' W 122°22'2 4.6
2018-Jan-08 19:30N 47°33' W 122°21'2 4.7
2018-Jan-08 19:01N 47°35' W 122°22'2 3.7
2018-Jan-08 18:31N 47°34' W 122°21'0 1.0
2018-Jan-08 18:01N 47°33' W 122°21'0 0.4
2018-Jan-08 17:31N 47°33' W 122°21'1 1.0
2018-Jan-08 17:01N 47°34' W 122°21'2 3.6
2018-Jan-08 16:30N 47°35' W 122°22'0 0.4
2018-Jan-08 16:01N 47°36' W 122°22'0 0.4
2018-Jan-08 15:31N 47°35' W 122°22'0 0.1
2018-Jan-08 15:01N 47°35' W 122°22'2 3.4
2018-Jan-08 14:30N 47°34' W 122°21'1 2.6
2018-Jan-08 14:00N 47°33' W 122°20'3 5.3
2018-Jan-08 13:31N 47°35' W 122°22'1 2.6
2018-Jan-08 13:00N 47°34' W 122°21'  
Track history (hours):
 
Tides and Currents Weather Stations Pressure Air Temp Water Temp Dewpoint Dewpoint Depression Visibility Wind Speed Wind Dir Waves Ship Positions

Westrac

Owner: WESTERN TOWBOAT CO, SEATTLE, WA. More information available from US FCC via Universal Licensing System and Coast Guard Vessel Documentation Center.

Last reported at 2018-Jan-18 01:55 UTC. Time now 2018-Jan-18 17:58 UTC.
Position N 47°34' W 122°21'.

Length 23 m; draft 5 m.

Type: Tug. MMSI: 366993010.

Date/timePositionNaut miles runAvg speedWind from/ knotsBaromVisibWave heightAir tempDewpointWater temp
2018-Jan-18 01:55N 47°34' W 122°21'1 1.9
2018-Jan-18 01:22N 47°33' W 122°20'0 0.9
2018-Jan-18 01:00N 47°33' W 122°20'5 5.1
2018-Jan-18 00:01N 47°38' W 122°23'0 0.0
2018-Jan-17 23:58N 47°38' W 122°23'  
2018-Jan-11 02:02N 47°34' W 122°21'0 0.3
2018-Jan-11 02:00N 47°34' W 122°21'1 1.9
2018-Jan-11 01:30N 47°33' W 122°21'0 0.1
2018-Jan-11 01:01N 47°33' W 122°21'0 0.0
2018-Jan-11 00:30N 47°33' W 122°21'1 1.9
2018-Jan-10 23:59N 47°34' W 122°21'0 0.0
2018-Jan-10 23:30N 47°34' W 122°21'0 0.0
2018-Jan-10 22:59N 47°34' W 122°21'0 0.0
2018-Jan-10 22:26N 47°34' W 122°21'0 0.0
2018-Jan-10 22:00N 47°34' W 122°21'0 0.0
2018-Jan-10 21:29N 47°34' W 122°21'0 0.0
2018-Jan-10 21:00N 47°34' W 122°21'0 0.0
2018-Jan-10 20:29N 47°34' W 122°21'0 0.0
2018-Jan-10 20:00N 47°34' W 122°21'0 0.0
2018-Jan-10 19:29N 47°34' W 122°21'0 0.0
2018-Jan-10 19:00N 47°34' W 122°21'1 1.6
2018-Jan-10 18:30N 47°33' W 122°21'0 0.3
2018-Jan-10 18:00N 47°33' W 122°21'2 5.0
2018-Jan-10 17:31N 47°35' W 122°22'2 3.8
2018-Jan-10 17:00N 47°34' W 122°21'0 0.9
2018-Jan-10 16:31N 47°34' W 122°21'1 2.3
2018-Jan-10 16:01N 47°35' W 122°21'2 2.9
2018-Jan-10 15:28N 47°34' W 122°21'1 1.1
2018-Jan-10 15:00N 47°33' W 122°21'1 1.8
2018-Jan-10 14:30N 47°34' W 122°21'0 0.0
2018-Jan-10 14:01N 47°34' W 122°21'0 0.0
2018-Jan-09 20:08N 47°34' W 122°21'0 3.4
2018-Jan-09 20:01N 47°34' W 122°21'0 0.9
2018-Jan-09 19:30N 47°35' W 122°22'3 5.7
2018-Jan-09 19:00N 47°32' W 122°20'1 1.0
2018-Jan-09 18:30N 47°33' W 122°20'0 0.1
2018-Jan-09 18:00N 47°33' W 122°20'0 0.6
2018-Jan-09 17:31N 47°32' W 122°20'0 0.6
2018-Jan-09 17:00N 47°33' W 122°20'2 4.9
2018-Jan-09 16:30N 47°35' W 122°21'1 1.4
2018-Jan-09 16:01N 47°35' W 122°22'2 3.5
2018-Jan-09 15:30N 47°33' W 122°20'0 0.8
2018-Jan-09 15:00N 47°33' W 122°20'0 0.8
2018-Jan-09 14:31N 47°33' W 122°20'1 1.3
2018-Jan-09 14:01N 47°34' W 122°21'0 0.0
2018-Jan-08 21:31N 47°34' W 122°21'0 0.0
2018-Jan-08 21:31N 47°34' W 122°21'0 0.7
2018-Jan-08 21:00N 47°34' W 122°21'2 3.7
2018-Jan-08 20:30N 47°35' W 122°22'0 0.5
2018-Jan-08 20:01N 47°35' W 122°22'2 4.6
2018-Jan-08 19:30N 47°33' W 122°21'2 4.7
2018-Jan-08 19:01N 47°35' W 122°22'2 3.7
2018-Jan-08 18:31N 47°34' W 122°21'0 1.0
2018-Jan-08 18:01N 47°33' W 122°21'0 0.4
2018-Jan-08 17:31N 47°33' W 122°21'1 1.0
2018-Jan-08 17:01N 47°34' W 122°21'2 3.6
2018-Jan-08 16:30N 47°35' W 122°22'0 0.4
2018-Jan-08 16:01N 47°36' W 122°22'0 0.4
2018-Jan-08 15:31N 47°35' W 122°22'0 0.1
2018-Jan-08 15:01N 47°35' W 122°22'2 3.4
2018-Jan-08 14:30N 47°34' W 122°21'1 2.6
2018-Jan-08 14:00N 47°33' W 122°20'3 5.3
2018-Jan-08 13:31N 47°35' W 122°22'1 2.6
2018-Jan-08 13:00N 47°34' W 122°21'  

Dump ship's entire track history